• Join FlightAware (Why Join?)
  • Login
  • US Flag 
02:53AM EDT


 

Airport Tracker/Info


-or-


 

Live Flight TrackerFlight Track Log ✈ SWA3044 ✈ 27-Apr-2013 ✈ KSTL - KMKE

Flight Track Log - Related Links

Times and Time Zones

All times are in EDT time to prevent confusion due to time zone crossing. See the SWA3044 flight status page for this flight to view local times or setup timezone preferences in your user account.

Time Position Orientation Groundspeed Altitude Reporting Facility
EDT Latitude Longitude Course Direction KTS MPH feet Rate Location/Type
07:28PM 38.7333 -90.2667 101° East 213 245 3,900  Level Gateway (St. Louis) TRACON
07:28PM 38.7500 -90.2553 28° Northeast 225 259 4,700 2,760 Climbing Kansas City Center
07:29PM 38.8158 -90.2219 22° Northeast 244 281 7,500 3,000 Climbing Kansas City Center
07:30PM 38.8919 -90.1828 22° Northeast 286 329 10,900 3,000 Climbing Kansas City Center
07:31PM 38.9828 -90.1342 23° Northeast 346 398 13,700 3,000 Climbing Kansas City Center
07:32PM 39.0767 -90.0856 22° Northeast 361 415 17,000 2,820 Climbing Kansas City Center
07:33PM 39.1789 -90.0314 22° Northeast 390 449 19,500 3,120 Climbing Kansas City Center
07:34PM 39.2786 -89.9778 23° Northeast 391 450 23,400 3,000 Climbing Kansas City Center
07:35PM 39.3989 -89.9119 23° Northeast 392 451 25,700 1,980 Climbing Kansas City Center
07:36PM 39.5064 -89.8550 22° Northeast 412 474 27,500 1,620 Climbing Kansas City Center
07:37PM 39.6178 -89.7953 22° Northeast 427 491 29,100 1,560 Climbing Kansas City Center
07:38PM 39.7206 -89.7406 22° Northeast 438 504 30,800 1,860 Climbing Kansas City Center
07:39PM 39.8578 -89.6650 23° Northeast 445 512 32,900 1,080 Climbing Kansas City Center
07:40PM 39.9428 -89.5986 31° Northeast 451 519 33,000  Climbing Chicago Center
07:41PM 40.0486 -89.5153 31° Northeast 447 514 33,000  Level Chicago Center
07:42PM 40.1539 -89.4331 31° Northeast 445 512 33,000  Level Chicago Center
07:43PM 40.2803 -89.3353 31° Northeast 443 510 33,000  Level Chicago Center
07:44PM 40.3842 -89.2528 31° Northeast 440 506 33,000  Level Chicago Center
07:45PM 40.4886 -89.1694 31° Northeast 442 509 33,000  Level Chicago Center
07:46PM 40.5919 -89.0881 31° Northeast 438 504 33,000  Level Chicago Center
07:47PM 40.6956 -89.0053 31° Northeast 439 505 33,000  Level Chicago Center
07:48PM 40.7992 -88.9228 31° Northeast 439 505 33,000  Level Chicago Center
07:49PM 40.9039 -88.8389 31° Northeast 435 501 33,000  Level Chicago Center
07:50PM 41.0289 -88.7386 31° Northeast 438 504 33,000  Level Chicago Center
07:51PM 41.1353 -88.6642 28° Northeast 439 505 33,000 -960 Level Chicago Center
07:52PM 41.2464 -88.5986 24° Northeast 439 505 31,100 -1,980 Descending Chicago Center
07:54PM 41.3597 -88.5308 24° Northeast 446 513 29,000 -2,100 Descending Chicago Center
07:55PM 41.4708 -88.4622 25° Northeast 440 506 26,800 -1,620 Descending Chicago Center
07:56PM 41.5767 -88.3986 24° Northeast 419 482 25,700 -1,140 Descending Chicago Center
07:57PM 41.6764 -88.3372 25° Northeast 397 457 24,500 -840 Descending Chicago Center
07:58PM 41.7772 -88.3142 10° North 370 426 24,000 -420 Descending Chicago Center
07:59PM 41.8783 -88.3122 North 365 420 23,700 -780 Descending Chicago Center
08:00PM 41.9967 -88.3106 North 359 413 22,500 -1,080 Descending Chicago Center
08:01PM 42.0939 -88.3111 360° North 353 406 21,500 -1,020 Descending Chicago Center
08:02PM 42.1894 -88.3100 360° North 346 398 20,500 -1,020 Descending Chicago Center
08:03PM 42.2850 -88.3078 North 345 397 19,500 -1,080 Descending Chicago Center
08:04PM 42.3806 -88.3314 350° North 339 390 18,400 -1,620 Descending Chicago Center
08:05PM 42.4725 -88.3253 North 330 380 16,200 -2,820 Descending Chicago Center
08:06PM 42.5686 -88.3147 North 344 396 12,700 -2,940 Descending Chicago Center
08:07PM 42.6631 -88.3069 North 343 395 10,300 -1,500 Descending Chicago Center
08:08PM 42.7356 -88.2469 31° Northeast 306 352 9,700 -1,080 Descending Chicago Center
08:09PM 42.8114 -88.1786 33° Northeast 283 326 8,100 -1,320 Descending Chicago Center
08:10PM 42.8753 -88.1189 34° Northeast 280 322 7,000 -780 Descending Chicago Center
08:11PM 42.9333 -88.0667 33° Northeast 256 295 6,700 -1,200 Descending KMKE
08:12PM 43.0000 -88.0333 20° North 266 306 4,800 -1,440 Descending KMKE
08:13PM 43.0500 -87.9833 36° Northeast 215 247 3,900 -1,020 Descending KMKE
08:14PM 43.0667 -87.9167 71° East 217 250 2,800 -840 Descending KMKE
08:15PM 43.0333 -87.8833 144° Southeast 121 139 2,300 -600 Descending KMKE
08:16PM 43.0000 -87.8833 180° South 124 143 1,600 -720 Descending KMKE
08:17PM 42.9667 -87.8833 180° South 122 140 900 -660 Descending KMKE
08:19PM 42.9469 -87.8971 152° Southeast  Level Estimated